createdAt,value
2022-11-21T00:00:48.426Z,46.61
2022-11-21T00:01:48.428Z,46.54
2022-11-21T00:02:48.414Z,46.53
2022-11-21T00:03:48.428Z,46.63
2022-11-21T00:04:48.427Z,46.53
2022-11-21T00:05:48.414Z,46.55
2022-11-21T00:06:48.415Z,46.52
2022-11-21T00:07:48.427Z,46.47
2022-11-21T00:08:48.428Z,46.6
2022-11-21T00:09:48.415Z,46.55
2022-11-21T00:10:48.477Z,46.52
2022-11-21T00:11:48.429Z,46.58
2022-11-21T00:12:48.429Z,46.54
2022-11-21T00:13:48.416Z,46.39
2022-11-21T00:14:48.429Z,46.33
2022-11-21T00:15:48.430Z,46.43
2022-11-21T00:16:48.429Z,46.47
2022-11-21T00:17:48.416Z,46.42
2022-11-21T00:18:48.429Z,46.45
2022-11-21T00:19:48.431Z,46.49
2022-11-21T00:20:48.430Z,46.5
2022-11-21T00:21:48.417Z,46.52
2022-11-21T00:22:48.439Z,46.46
2022-11-21T00:23:48.430Z,46.37
2022-11-21T00:24:48.417Z,46.43
2022-11-21T00:25:48.417Z,46.43
2022-11-21T00:26:48.431Z,46.32
2022-11-21T00:27:48.431Z,46.63
2022-11-21T00:28:48.418Z,46.53
2022-11-21T00:29:48.432Z,46.6
2022-11-21T00:30:48.432Z,46.58
2022-11-21T00:31:48.432Z,46.7
2022-11-21T00:32:48.418Z,46.62
2022-11-21T00:33:48.432Z,46.73
2022-11-21T00:34:48.483Z,46.82
2022-11-21T00:35:48.432Z,46.62
2022-11-21T00:36:48.419Z,46.52
2022-11-21T00:37:48.433Z,46.6
2022-11-21T00:38:48.432Z,46.47
2022-11-21T00:39:48.433Z,46.5
2022-11-21T00:40:48.420Z,46.54
2022-11-21T00:41:48.433Z,46.6
2022-11-21T00:42:57.690Z,46.41
2022-11-21T00:43:48.420Z,46.45
2022-11-21T00:44:48.421Z,46.48
2022-11-21T00:45:48.434Z,46.46
2022-11-21T00:46:48.434Z,46.5
2022-11-21T00:47:48.420Z,46.52
2022-11-21T00:48:48.434Z,46.46
2022-11-21T00:49:48.434Z,46.51
2022-11-21T00:50:48.435Z,46.49
2022-11-21T00:51:48.421Z,46.54
2022-11-21T00:52:48.435Z,46.76
2022-11-21T00:53:48.461Z,46.59
2022-11-21T00:54:48.435Z,46.79
2022-11-21T00:55:48.422Z,46.72
2022-11-21T00:56:48.435Z,46.77
2022-11-21T00:57:48.436Z,46.8
2022-11-21T00:58:48.436Z,46.63
2022-11-21T00:59:48.422Z,46.69
2022-11-21T01:00:48.436Z,46.73
2022-11-21T01:01:48.435Z,46.76
2022-11-21T01:02:48.423Z,46.8
2022-11-21T01:03:48.423Z,46.64
2022-11-21T01:04:48.436Z,46.71
2022-11-21T01:05:48.437Z,46.54
2022-11-21T01:06:48.423Z,46.54
2022-11-21T01:07:48.437Z,46.52
2022-11-21T01:08:48.437Z,46.44
2022-11-21T01:09:48.437Z,46.63
2022-11-21T01:10:48.424Z,46.64
2022-11-21T01:11:48.437Z,46.67
2022-11-21T01:12:48.437Z,46.7
2022-11-21T01:13:48.437Z,46.7
2022-11-21T01:14:48.424Z,46.74
2022-11-21T01:15:48.438Z,46.73
2022-11-21T01:16:48.438Z,46.67
2022-11-21T01:17:48.425Z,46.7
2022-11-21T01:18:48.425Z,46.67
2022-11-21T01:19:48.439Z,46.6
2022-11-21T01:20:48.438Z,46.82
2022-11-21T01:21:48.425Z,46.7
2022-11-21T01:22:48.425Z,46.68
2022-11-21T01:23:48.439Z,46.51
2022-11-21T01:24:48.439Z,46.71
2022-11-21T01:25:48.426Z,46.68
2022-11-21T01:26:48.440Z,46.68
2022-11-21T01:27:48.440Z,46.69
2022-11-21T01:28:48.439Z,46.69
2022-11-21T01:29:48.439Z,46.73
2022-11-21T01:30:48.439Z,46.76
2022-11-21T01:31:48.439Z,46.94
2022-11-21T01:32:48.441Z,46.75
2022-11-21T01:33:48.427Z,46.76
2022-11-21T01:34:48.441Z,46.74
2022-11-21T01:35:48.441Z,46.92
2022-11-21T01:36:48.427Z,47.05
2022-11-21T01:37:48.428Z,46.91
2022-11-21T01:38:48.441Z,47.03
2022-11-21T01:39:48.442Z,47.03
2022-11-21T01:40:48.428Z,47.02
2022-11-21T01:41:48.428Z,47.03
2022-11-21T01:42:48.441Z,47.04
2022-11-21T01:43:48.441Z,46.91
2022-11-21T01:44:48.429Z,47.13
2022-11-21T01:45:48.441Z,47.27
2022-11-21T01:46:48.442Z,46.99
2022-11-21T01:47:48.443Z,47.02
2022-11-21T01:48:48.429Z,47.06
2022-11-21T01:49:48.443Z,47.14
2022-11-21T01:50:48.442Z,47.22
2022-11-21T01:51:48.443Z,47.19
2022-11-21T01:52:48.430Z,47.09
2022-11-21T01:53:48.491Z,47.06
2022-11-21T01:54:48.443Z,46.96
2022-11-21T01:55:48.430Z,46.99
2022-11-21T01:56:48.430Z,47.12
2022-11-21T01:57:48.444Z,47.32
2022-11-21T01:58:48.444Z,47.15
2022-11-21T01:59:48.431Z,46.99
2022-11-21T02:00:48.445Z,46.92
2022-11-21T02:01:48.445Z,46.84
2022-11-21T02:02:48.445Z,46.79
2022-11-21T02:03:48.432Z,46.81
2022-11-21T02:04:48.445Z,46.95
2022-11-21T02:05:48.511Z,46.83
2022-11-21T02:06:48.445Z,46.71
2022-11-21T02:07:48.432Z,46.8
2022-11-21T02:08:48.445Z,46.88
2022-11-21T02:09:48.446Z,46.92
2022-11-21T02:10:48.445Z,46.85
2022-11-21T02:11:48.432Z,46.92
2022-11-21T02:13:48.446Z,47.01
2022-11-21T02:14:48.433Z,47.04
2022-11-21T02:15:48.433Z,46.87
2022-11-21T02:16:48.447Z,46.81
2022-11-21T02:17:48.447Z,46.83
2022-11-21T02:18:48.433Z,46.83
2022-11-21T02:19:48.446Z,46.82
2022-11-21T02:20:48.447Z,46.92
2022-11-21T02:21:48.447Z,46.85
2022-11-21T02:22:57.692Z,46.8
2022-11-21T02:23:48.448Z,46.78
2022-11-21T02:24:48.473Z,46.79
2022-11-21T02:25:48.447Z,46.66
2022-11-21T02:26:48.434Z,46.68
2022-11-21T02:27:48.448Z,46.56
2022-11-21T02:28:48.448Z,46.69
2022-11-21T02:29:48.448Z,46.44
2022-11-21T02:30:48.435Z,46.56
2022-11-21T02:31:48.449Z,46.51
2022-11-21T02:32:48.449Z,46.6
2022-11-21T02:33:48.435Z,46.41
2022-11-21T02:34:48.436Z,46.51
2022-11-21T02:35:48.449Z,46.44
2022-11-21T02:36:48.450Z,46.49
2022-11-21T02:37:48.436Z,46.48
2022-11-21T02:38:48.450Z,46.48
2022-11-21T02:39:48.450Z,46.55
2022-11-21T02:40:48.449Z,46.56
2022-11-21T02:41:48.437Z,46.46
2022-11-21T02:42:48.449Z,46.22
2022-11-21T02:43:48.493Z,46.33
2022-11-21T02:44:48.451Z,46.5
2022-11-21T02:45:48.437Z,46.55
2022-11-21T02:46:48.451Z,46.55
2022-11-21T02:47:48.451Z,46.74
2022-11-21T02:48:48.450Z,46.69
2022-11-21T02:49:48.438Z,46.65
2022-11-21T02:50:48.452Z,46.64
2022-11-21T02:51:48.452Z,46.62
2022-11-21T02:52:48.438Z,46.84
2022-11-21T02:53:48.438Z,46.79
2022-11-21T02:54:48.451Z,46.78
2022-11-21T02:55:48.475Z,46.97
2022-11-21T02:56:48.439Z,46.97
2022-11-21T02:57:48.453Z,47.01
2022-11-21T02:58:48.453Z,47.05
2022-11-21T02:59:48.453Z,47.05
2022-11-21T03:00:48.439Z,47.07
2022-11-21T03:01:48.453Z,46.95
2022-11-21T03:02:48.454Z,47.27
2022-11-21T03:03:48.453Z,46.93
2022-11-21T03:04:48.441Z,47.22
2022-11-21T03:05:48.454Z,47.35
2022-11-21T03:06:48.453Z,47.18
2022-11-21T03:07:48.440Z,47.37
2022-11-21T03:08:48.440Z,47.29
2022-11-21T03:09:48.453Z,47.42
2022-11-21T03:10:48.454Z,47.4
2022-11-21T03:11:48.441Z,47.38
2022-11-21T03:12:48.441Z,47.42
2022-11-21T03:13:48.454Z,47.5
2022-11-21T03:14:48.455Z,47.28
2022-11-21T03:15:48.441Z,47.44
2022-11-21T03:16:48.455Z,47.48
2022-11-21T03:17:48.454Z,47.52
2022-11-21T03:18:48.455Z,47.26
2022-11-21T03:19:48.454Z,47.5
2022-11-21T03:20:48.455Z,47.5
2022-11-21T03:21:48.456Z,47.61
2022-11-21T03:22:48.455Z,47.63
2022-11-21T03:23:48.442Z,47.52
2022-11-21T03:24:48.456Z,47.58
2022-11-21T03:25:48.456Z,47.58
2022-11-21T03:26:48.443Z,47.63
2022-11-21T03:27:48.443Z,47.79
2022-11-21T03:28:48.457Z,47.82
2022-11-21T03:29:48.457Z,47.72
2022-11-21T03:30:48.443Z,48.03
2022-11-21T03:32:48.457Z,48.17
2022-11-21T03:33:48.456Z,47.98
2022-11-21T03:34:48.444Z,48.17
2022-11-21T03:35:48.458Z,48.29
2022-11-21T03:36:48.458Z,48
2022-11-21T03:37:48.458Z,48.07
2022-11-21T03:38:48.444Z,47.98
2022-11-21T03:39:48.458Z,47.88
2022-11-21T03:40:48.458Z,47.91
2022-11-21T03:41:48.457Z,47.7
2022-11-21T03:42:48.446Z,47.72
2022-11-21T03:43:48.459Z,47.83
2022-11-21T03:44:48.459Z,47.77
2022-11-21T03:45:48.445Z,47.49
2022-11-21T03:46:48.445Z,47.58
2022-11-21T03:47:48.459Z,47.59
2022-11-21T03:48:48.458Z,47.74
2022-11-21T03:49:48.446Z,47.73
2022-11-21T03:50:48.460Z,47.74
2022-11-21T03:51:48.459Z,47.69
2022-11-21T03:52:48.459Z,47.73
2022-11-21T03:53:48.446Z,47.64
2022-11-21T03:54:48.460Z,47.82
2022-11-21T03:55:48.502Z,47.74
2022-11-21T03:56:48.460Z,47.54
2022-11-21T03:57:48.447Z,47.53
2022-11-21T03:58:48.460Z,47.3
2022-11-21T03:59:48.460Z,47.52
2022-11-21T04:00:48.461Z,47.37
2022-11-21T04:01:48.447Z,47.42
2022-11-21T04:02:57.720Z,47.37
2022-11-21T04:03:48.461Z,47.13
2022-11-21T04:04:48.447Z,47.16
2022-11-21T04:05:48.448Z,47.2
2022-11-21T04:06:48.461Z,47.2
2022-11-21T04:07:48.460Z,47.08
2022-11-21T04:08:48.448Z,47.12
2022-11-21T04:09:48.462Z,47.08
2022-11-21T04:10:48.462Z,47.08
2022-11-21T04:11:48.462Z,46.98
2022-11-21T04:12:48.448Z,46.96
2022-11-21T04:13:48.462Z,46.98
2022-11-21T04:14:48.462Z,47.07
2022-11-21T04:15:48.462Z,47.13
2022-11-21T04:16:48.449Z,46.93
2022-11-21T04:17:48.463Z,46.91
2022-11-21T04:18:48.463Z,47.07
2022-11-21T04:19:48.462Z,46.84
2022-11-21T04:20:48.449Z,46.88
2022-11-21T04:21:48.462Z,46.85
2022-11-21T04:22:48.462Z,46.95
2022-11-21T04:23:48.450Z,46.93
2022-11-21T04:24:48.450Z,46.89
2022-11-21T04:25:48.464Z,46.9
2022-11-21T04:26:48.463Z,46.78
2022-11-21T04:27:48.450Z,46.63
2022-11-21T04:28:48.464Z,46.53
2022-11-21T04:29:48.464Z,46.36
2022-11-21T04:30:48.463Z,46.42
2022-11-21T04:31:48.451Z,46.33
2022-11-21T04:32:48.465Z,46.09
2022-11-21T04:33:48.466Z,46.12
2022-11-21T04:34:48.464Z,46.09
2022-11-21T04:35:48.451Z,46.22
2022-11-21T04:36:48.465Z,46.06
2022-11-21T04:37:48.464Z,46.26
2022-11-21T04:38:48.473Z,46.16
2022-11-21T04:39:48.452Z,46.09
2022-11-21T04:40:48.466Z,45.88
2022-11-21T04:41:48.465Z,46.12
2022-11-21T04:42:48.452Z,45.75
2022-11-21T04:43:48.453Z,46.08
2022-11-21T04:44:48.465Z,46.15
2022-11-21T04:45:48.466Z,46.24
2022-11-21T04:46:48.453Z,46.19
2022-11-21T04:47:48.467Z,46.21
2022-11-21T04:48:48.467Z,46.29
2022-11-21T04:49:48.467Z,46.26
2022-11-21T04:50:48.453Z,46.22
2022-11-21T04:51:48.467Z,46.12
2022-11-21T04:52:48.466Z,46.33
2022-11-21T04:53:48.466Z,46.5
2022-11-21T04:54:48.454Z,46.28
2022-11-21T04:55:48.468Z,46.15
2022-11-21T04:56:48.468Z,46.32
2022-11-21T04:57:48.454Z,46.1
2022-11-21T04:58:48.454Z,46.12
2022-11-21T04:59:48.467Z,46.01
2022-11-21T05:00:48.469Z,46.11
2022-11-21T05:01:48.455Z,45.96
2022-11-21T05:02:48.456Z,45.92
2022-11-21T05:03:48.469Z,46.02
2022-11-21T05:04:48.469Z,46.03
2022-11-21T05:05:48.455Z,45.93
2022-11-21T05:06:48.469Z,45.92
2022-11-21T05:07:48.469Z,45.8
2022-11-21T05:08:48.469Z,45.97
2022-11-21T05:09:48.456Z,45.9
2022-11-21T05:10:48.469Z,45.94
2022-11-21T05:11:48.470Z,46.04
2022-11-21T05:12:48.470Z,45.83
2022-11-21T05:13:48.456Z,45.98
2022-11-21T05:14:48.470Z,46.09
2022-11-21T05:15:48.469Z,46.1
2022-11-21T05:16:48.456Z,46.05
2022-11-21T05:17:48.457Z,46.04
2022-11-21T05:18:48.470Z,46.02
2022-11-21T05:19:48.471Z,46.23
2022-11-21T05:20:48.457Z,46.03
2022-11-21T05:21:48.536Z,45.99
2022-11-21T05:22:48.471Z,45.95
2022-11-21T05:23:48.470Z,45.86
2022-11-21T05:24:48.458Z,45.95
2022-11-21T05:25:48.471Z,45.79
2022-11-21T05:26:48.472Z,45.84
2022-11-21T05:27:48.471Z,46.13
2022-11-21T05:28:48.458Z,45.95
2022-11-21T05:29:48.472Z,46.02
2022-11-21T05:30:48.473Z,45.87
2022-11-21T05:31:48.471Z,45.93
2022-11-21T05:32:48.459Z,45.86
2022-11-21T05:33:48.496Z,45.88
2022-11-21T05:34:48.472Z,45.87
2022-11-21T05:35:48.459Z,45.94
2022-11-21T05:36:48.460Z,45.95
2022-11-21T05:37:48.473Z,46.05
2022-11-21T05:38:48.473Z,45.94
2022-11-21T05:39:48.460Z,46.13
2022-11-21T05:40:48.473Z,46.19
2022-11-21T05:41:48.473Z,46.16
2022-11-21T05:42:57.732Z,46.19
2022-11-21T05:43:48.460Z,46.33
2022-11-21T05:44:48.474Z,46.34
2022-11-21T05:45:48.473Z,46.41
2022-11-21T05:46:48.473Z,46.22
2022-11-21T05:47:48.461Z,46.35
2022-11-21T05:48:48.475Z,46.32
2022-11-21T05:49:48.475Z,46.42
2022-11-21T05:50:48.475Z,46.35
2022-11-21T05:51:48.461Z,46.38
2022-11-21T05:52:48.498Z,46.34
2022-11-21T05:53:48.475Z,46.55
2022-11-21T05:54:48.462Z,46.45
2022-11-21T05:55:48.462Z,46.36
2022-11-21T05:56:48.475Z,46.35
2022-11-21T05:57:48.475Z,46.62
2022-11-21T05:58:48.462Z,46.41
2022-11-21T05:59:48.476Z,46.43
2022-11-21T06:00:48.476Z,46.36
2022-11-21T06:01:48.476Z,46.53
2022-11-21T06:03:48.477Z,46.53
2022-11-21T06:04:48.543Z,46.31
2022-11-21T06:05:48.476Z,46.27
2022-11-21T06:06:48.463Z,46.3
2022-11-21T06:07:48.477Z,46.39
2022-11-21T06:08:48.477Z,46.27
2022-11-21T06:09:48.476Z,46.42
2022-11-21T06:10:48.464Z,46.3
2022-11-21T06:11:48.477Z,46.17
2022-11-21T06:12:48.477Z,46.07
2022-11-21T06:13:48.464Z,46.35
2022-11-21T06:14:48.464Z,46.27
2022-11-21T06:15:48.477Z,46.11
2022-11-21T06:16:48.478Z,46.25
2022-11-21T06:17:48.465Z,46.28
2022-11-21T06:18:48.478Z,46.3
2022-11-21T06:19:48.479Z,46.27
2022-11-21T06:20:48.478Z,46.2
2022-11-21T06:21:48.465Z,46.32
2022-11-21T06:22:48.479Z,46.24
2022-11-21T06:23:48.479Z,46.23
2022-11-21T06:24:48.478Z,46.16
2022-11-21T06:25:48.466Z,46.19
2022-11-21T06:26:48.479Z,46.06
2022-11-21T06:27:48.479Z,46.2
2022-11-21T06:28:48.490Z,46.2
2022-11-21T06:29:48.467Z,46.39
2022-11-21T06:30:48.479Z,46.39
2022-11-21T06:31:48.480Z,46.51
2022-11-21T06:32:48.467Z,46.29
2022-11-21T06:33:48.467Z,46.45
2022-11-21T06:34:48.480Z,46.45
2022-11-21T06:35:48.481Z,46.5
2022-11-21T06:36:48.467Z,46.5
2022-11-21T06:37:48.481Z,46.46
2022-11-21T06:38:48.480Z,46.37
2022-11-21T06:39:48.480Z,46.58
2022-11-21T06:40:48.468Z,46.56
2022-11-21T06:41:48.481Z,46.81
2022-11-21T06:42:48.481Z,46.78
2022-11-21T06:43:48.482Z,46.59
2022-11-21T06:44:48.468Z,46.56
2022-11-21T06:45:48.482Z,46.57
2022-11-21T06:47:48.469Z,46.35
2022-11-21T06:48:48.469Z,46.35
2022-11-21T06:49:48.482Z,46.32
2022-11-21T06:50:48.482Z,46.29
2022-11-21T06:51:48.469Z,46.39
2022-11-21T06:52:48.548Z,46.52
2022-11-21T06:53:48.483Z,46.49
2022-11-21T06:54:48.482Z,46.6
2022-11-21T06:55:48.470Z,46.62
2022-11-21T06:56:48.482Z,46.67
2022-11-21T06:57:48.484Z,46.8
2022-11-21T06:58:48.484Z,46.42
2022-11-21T06:59:48.470Z,46.58
2022-11-21T07:00:48.484Z,46.35
2022-11-21T07:01:48.483Z,46.77
2022-11-21T07:02:48.483Z,46.55
2022-11-21T07:03:48.472Z,46.51
2022-11-21T07:04:48.532Z,46.61
2022-11-21T07:05:48.485Z,46.53
2022-11-21T07:06:48.471Z,46.75
2022-11-21T07:07:48.471Z,46.38
2022-11-21T07:08:48.485Z,46.2
2022-11-21T07:09:48.484Z,46.15
2022-11-21T07:10:48.472Z,46.16
2022-11-21T07:11:48.484Z,46.14
2022-11-21T07:12:48.484Z,46.18
2022-11-21T07:13:48.485Z,46.16
2022-11-21T07:14:48.472Z,46.11
2022-11-21T07:15:48.486Z,46.07
2022-11-21T07:16:48.536Z,46.02
2022-11-21T07:17:48.486Z,46.26
2022-11-21T07:18:48.473Z,46.16
2022-11-21T07:19:48.487Z,46.21
2022-11-21T07:20:48.486Z,46.36
2022-11-21T07:21:48.486Z,46.2
2022-11-21T07:22:57.732Z,46.15
2022-11-21T07:23:48.487Z,46.13
2022-11-21T07:24:48.486Z,46.02
2022-11-21T07:25:48.474Z,45.93
2022-11-21T07:26:48.474Z,45.94
2022-11-21T07:27:48.488Z,45.95
2022-11-21T07:28:48.488Z,45.87
2022-11-21T07:29:48.474Z,45.8
2022-11-21T07:30:48.487Z,45.74
2022-11-21T07:31:48.488Z,45.7
2022-11-21T07:32:48.487Z,45.97
2022-11-21T07:33:48.475Z,45.81
2022-11-21T07:34:48.489Z,45.85
2022-11-21T07:35:48.489Z,45.99
2022-11-21T07:36:48.489Z,45.95
2022-11-21T07:37:48.476Z,45.85
2022-11-21T07:38:48.489Z,45.95
2022-11-21T07:39:48.489Z,45.77
2022-11-21T07:40:48.476Z,45.57
2022-11-21T07:41:48.477Z,45.65
2022-11-21T07:42:48.490Z,45.55
2022-11-21T07:43:48.489Z,45.54
2022-11-21T07:44:48.476Z,45.64
2022-11-21T07:45:48.477Z,45.62
2022-11-21T07:46:48.490Z,45.54
2022-11-21T07:47:48.490Z,45.73
2022-11-21T07:48:48.477Z,45.58
2022-11-21T07:49:48.490Z,45.57
2022-11-21T07:50:48.491Z,45.57
2022-11-21T07:51:48.490Z,45.75
2022-11-21T07:52:48.490Z,45.6
2022-11-21T07:53:48.490Z,45.61
2022-11-21T07:54:48.491Z,45.49
2022-11-21T07:55:48.491Z,45.6
2022-11-21T07:56:48.478Z,45.57
2022-11-21T07:57:48.492Z,45.72
2022-11-21T07:58:48.492Z,45.54
2022-11-21T07:59:48.478Z,45.56
2022-11-21T08:00:48.479Z,45.57
2022-11-21T08:01:48.492Z,45.65
2022-11-21T08:02:48.491Z,45.71
2022-11-21T08:03:48.479Z,45.63
2022-11-21T08:04:48.517Z,45.64
2022-11-21T08:05:48.493Z,45.51
2022-11-21T08:06:48.493Z,45.65
2022-11-21T08:07:48.479Z,45.63
2022-11-21T08:08:48.493Z,45.74
2022-11-21T08:09:48.493Z,45.76
2022-11-21T08:10:48.493Z,45.76
2022-11-21T08:11:48.480Z,45.81
2022-11-21T08:12:48.494Z,45.94
2022-11-21T08:13:48.493Z,45.88
2022-11-21T08:14:48.493Z,45.84
2022-11-21T08:15:48.481Z,45.74
2022-11-21T08:16:48.518Z,45.68
2022-11-21T08:17:48.495Z,45.5
2022-11-21T08:18:48.481Z,45.47
2022-11-21T08:19:48.482Z,45.5
2022-11-21T08:20:48.495Z,45.44
2022-11-21T08:21:48.494Z,45.43
2022-11-21T08:22:48.482Z,45.41
2022-11-21T08:23:48.496Z,45.35
2022-11-21T08:24:48.495Z,45.19
2022-11-21T08:25:48.495Z,45.29
2022-11-21T08:26:48.482Z,45.06
2022-11-21T08:27:48.496Z,45.02
2022-11-21T08:28:48.498Z,44.71
2022-11-21T08:29:48.496Z,44.76
2022-11-21T08:30:48.483Z,44.75
2022-11-21T08:31:48.497Z,44.68
2022-11-21T08:32:48.497Z,44.74
2022-11-21T08:33:48.497Z,44.72
2022-11-21T08:34:48.484Z,44.67
2022-11-21T08:35:48.497Z,44.69
2022-11-21T08:36:48.497Z,44.45
2022-11-21T08:37:48.484Z,44.58
2022-11-21T08:38:48.485Z,44.45
2022-11-21T08:39:48.498Z,44.46
2022-11-21T08:40:48.498Z,44.35
2022-11-21T08:41:48.485Z,44.38
2022-11-21T08:42:48.498Z,44.46
2022-11-21T08:43:48.499Z,44.53
2022-11-21T08:44:48.499Z,44.46
2022-11-21T08:45:48.485Z,44.49
2022-11-21T08:46:48.499Z,44.49
2022-11-21T08:47:48.499Z,44.82
2022-11-21T08:48:48.499Z,44.75
2022-11-21T08:49:48.487Z,44.91
2022-11-21T08:50:48.500Z,45.1
2022-11-21T08:51:48.501Z,45.12
2022-11-21T08:52:48.500Z,45.13
2022-11-21T08:53:48.487Z,45.14
2022-11-21T08:54:48.500Z,45.21
2022-11-21T08:55:48.501Z,45.3
2022-11-21T08:56:48.487Z,45.37
2022-11-21T08:57:48.487Z,45.46
2022-11-21T08:58:48.501Z,45.54
2022-11-21T08:59:48.501Z,45.36
2022-11-21T09:00:48.488Z,45.66
2022-11-21T09:01:48.502Z,45.71
2022-11-21T09:02:57.760Z,45.8
2022-11-21T09:03:48.501Z,45.77
2022-11-21T09:04:48.489Z,45.72
2022-11-21T09:05:48.502Z,45.82
2022-11-21T09:06:48.502Z,45.83
2022-11-21T09:07:48.501Z,45.83
2022-11-21T09:08:48.489Z,45.68
2022-11-21T09:09:48.503Z,45.64
2022-11-21T09:10:48.503Z,45.56
2022-11-21T09:11:48.489Z,45.41
2022-11-21T09:12:48.490Z,45.22
2022-11-21T09:13:48.503Z,45.28
2022-11-21T09:14:48.503Z,45.11
2022-11-21T09:15:48.490Z,45.17
2022-11-21T09:16:48.490Z,45.1
2022-11-21T09:17:48.504Z,45.04
2022-11-21T09:18:48.503Z,45.26
2022-11-21T09:19:48.491Z,45.15
2022-11-21T09:20:48.504Z,45.16
2022-11-21T09:21:48.505Z,45.4
2022-11-21T09:22:48.504Z,45.28
2022-11-21T09:23:48.491Z,45.24
2022-11-21T09:24:48.505Z,45.27
2022-11-21T09:25:48.504Z,45.28
2022-11-21T09:26:48.506Z,45.18
2022-11-21T09:27:48.492Z,45.29
2022-11-21T09:28:48.506Z,45.39
2022-11-21T09:29:48.505Z,45.45
2022-11-21T09:30:48.493Z,45.47
2022-11-21T09:31:48.493Z,45.49
2022-11-21T09:32:48.507Z,45.52
2022-11-21T09:33:48.506Z,45.69
2022-11-21T09:34:48.493Z,45.65
2022-11-21T09:35:48.493Z,45.73
2022-11-21T09:36:48.507Z,45.84
2022-11-21T09:37:48.507Z,45.81
2022-11-21T09:38:48.494Z,46.01
2022-11-21T09:39:48.508Z,46.13
2022-11-21T09:40:48.508Z,46.27
2022-11-21T09:41:48.507Z,46.56
2022-11-21T09:42:48.495Z,46.55
2022-11-21T09:43:48.507Z,46.59
2022-11-21T09:44:48.508Z,46.31
2022-11-21T09:45:48.508Z,46.55
2022-11-21T09:46:48.495Z,46.41
2022-11-21T09:47:48.509Z,46.5
2022-11-21T09:48:48.509Z,46.44
2022-11-21T09:49:48.496Z,46.35
2022-11-21T09:50:48.496Z,46.39
2022-11-21T09:51:48.509Z,46.35
2022-11-21T09:52:48.510Z,46.35
2022-11-21T09:53:48.496Z,46.25
2022-11-21T09:54:48.574Z,45.99
2022-11-21T09:55:48.509Z,46.03
2022-11-21T09:56:48.510Z,45.95
2022-11-21T09:57:48.497Z,45.9
2022-11-21T09:58:48.511Z,45.81
2022-11-21T09:59:48.510Z,45.7
2022-11-21T10:00:48.510Z,45.7
2022-11-21T10:01:48.498Z,45.6
2022-11-21T10:02:48.512Z,45.51
2022-11-21T10:03:48.511Z,45.48
2022-11-21T10:04:48.511Z,45.31
2022-11-21T10:05:48.498Z,45.39
2022-11-21T10:06:48.536Z,45.35
2022-11-21T10:07:48.512Z,45.62
2022-11-21T10:08:48.499Z,45.36
2022-11-21T10:09:48.499Z,45.36
2022-11-21T10:10:48.513Z,45.35
2022-11-21T10:11:48.512Z,45.18
2022-11-21T10:12:48.500Z,45.23
2022-11-21T10:13:48.513Z,45.17
2022-11-21T10:14:48.514Z,45.09
2022-11-21T10:15:48.514Z,44.91
2022-11-21T10:16:48.500Z,44.94
2022-11-21T10:17:48.514Z,44.88
2022-11-21T10:18:48.555Z,44.82
2022-11-21T10:19:48.514Z,44.95
2022-11-21T10:20:48.502Z,45.08
2022-11-21T10:21:48.515Z,45.31
2022-11-21T10:22:48.516Z,45.3
2022-11-21T10:23:48.514Z,45.47
2022-11-21T10:24:48.503Z,45.51
2022-11-21T10:25:48.516Z,45.79
2022-11-21T10:26:48.516Z,45.98
2022-11-21T10:27:48.502Z,46.22
2022-11-21T10:28:48.502Z,46.22
2022-11-21T10:29:48.516Z,46.46
2022-11-21T10:30:48.581Z,46.53
2022-11-21T10:31:48.503Z,46.38
2022-11-21T10:32:48.517Z,46.27
2022-11-21T10:33:48.517Z,46.31
2022-11-21T10:34:48.516Z,45.97
2022-11-21T10:35:48.504Z,45.95
2022-11-21T10:36:48.518Z,45.86
2022-11-21T10:37:48.517Z,45.63
2022-11-21T10:38:48.518Z,45.68
2022-11-21T10:39:48.504Z,45.52
2022-11-21T10:40:48.518Z,45.58
2022-11-21T10:41:48.517Z,45.21
2022-11-21T10:42:57.763Z,45.14
2022-11-21T10:43:48.506Z,45.11
2022-11-21T10:44:48.519Z,45.45
2022-11-21T10:45:48.520Z,45.35
2022-11-21T10:46:48.506Z,45.53
2022-11-21T10:47:48.506Z,45.67
2022-11-21T10:48:48.519Z,45.6
2022-11-21T10:49:48.584Z,45.78
2022-11-21T10:50:48.506Z,45.81
2022-11-21T10:51:48.520Z,45.82
2022-11-21T10:52:48.519Z,45.74
2022-11-21T10:53:48.520Z,45.68
2022-11-21T10:54:48.507Z,45.59
2022-11-21T10:55:48.521Z,45.45
2022-11-21T10:56:48.521Z,45.32
2022-11-21T10:57:48.521Z,45.14
2022-11-21T10:58:48.508Z,44.9
2022-11-21T10:59:48.522Z,44.82
2022-11-21T11:00:48.522Z,44.68
2022-11-21T11:01:48.522Z,44.39
2022-11-21T11:02:48.509Z,44.15
2022-11-21T11:03:48.523Z,44.22
2022-11-21T11:04:48.524Z,44.26
2022-11-21T11:05:48.509Z,44.37
2022-11-21T11:06:48.510Z,44.21
2022-11-21T11:07:48.522Z,44.24
2022-11-21T11:08:48.523Z,44.32
2022-11-21T11:09:48.510Z,44.4
2022-11-21T11:10:48.524Z,44.43
2022-11-21T11:11:48.523Z,44.54
2022-11-21T11:12:48.523Z,44.3
2022-11-21T11:13:48.524Z,44.27
2022-11-21T11:14:48.525Z,44.2
2022-11-21T11:15:48.526Z,44.03
2022-11-21T11:16:48.524Z,44.1
2022-11-21T11:17:48.512Z,44.2
2022-11-21T11:18:48.526Z,44.18
2022-11-21T11:19:48.526Z,44.44
2022-11-21T11:20:48.512Z,44.55
2022-11-21T11:21:48.513Z,44.57
2022-11-21T11:22:48.526Z,44.61
2022-11-21T11:23:48.527Z,44.41
2022-11-21T11:24:48.513Z,44.48
2022-11-21T11:25:48.551Z,44.66
2022-11-21T11:26:48.527Z,44.67
2022-11-21T11:27:48.526Z,44.71
2022-11-21T11:28:48.514Z,44.53
2022-11-21T11:29:48.528Z,44.26
2022-11-21T11:30:48.527Z,44.51
2022-11-21T11:31:48.528Z,44.32
2022-11-21T11:32:48.515Z,44.47
2022-11-21T11:33:48.529Z,44.26
2022-11-21T11:34:48.529Z,44.51
2022-11-21T11:35:48.528Z,43.92
2022-11-21T11:36:48.516Z,43.49
2022-11-21T11:37:48.554Z,42.69
2022-11-21T11:38:48.529Z,42.18
2022-11-21T11:39:48.517Z,41.93
2022-11-21T11:40:48.518Z,42.09
2022-11-21T11:41:48.531Z,42.56
2022-11-21T11:42:48.531Z,42.93
2022-11-21T11:43:48.518Z,43.15
2022-11-21T11:44:48.532Z,43.33
2022-11-21T11:45:48.532Z,43.66
2022-11-21T11:46:48.531Z,43.79
2022-11-21T11:47:48.519Z,44.12
2022-11-21T11:48:48.533Z,44.66
2022-11-21T11:49:48.534Z,45.07
2022-11-21T11:50:48.532Z,45.32
2022-11-21T11:51:48.520Z,45.41
2022-11-21T11:52:48.534Z,45.48
2022-11-21T11:53:48.534Z,45.45
2022-11-21T11:54:48.534Z,45.58
2022-11-21T11:55:48.521Z,45.73
2022-11-21T11:56:48.535Z,45.81
2022-11-21T11:57:48.534Z,45.58
2022-11-21T11:58:48.521Z,45.71
2022-11-21T11:59:48.522Z,45.42
2022-11-21T12:00:48.535Z,44.16
2022-11-21T12:01:48.535Z,43.14
2022-11-21T12:02:48.522Z,42.18
2022-11-21T12:03:48.537Z,41.73
2022-11-21T12:04:48.537Z,41.22
2022-11-21T12:05:48.537Z,41.04
2022-11-21T12:06:48.524Z,41.15
2022-11-21T12:07:48.538Z,41.46
2022-11-21T12:08:48.538Z,42.32
2022-11-21T12:09:48.537Z,42.76
2022-11-21T12:10:48.526Z,42.92
2022-11-21T12:11:48.538Z,43.43
2022-11-21T12:12:48.539Z,43.94
2022-11-21T12:13:48.538Z,44.58
2022-11-21T12:14:48.526Z,44.94
2022-11-21T12:15:48.540Z,45.39
2022-11-21T12:16:48.539Z,45.68
2022-11-21T12:17:48.527Z,45.69
2022-11-21T12:18:48.527Z,45.43
2022-11-21T12:19:48.540Z,45
2022-11-21T12:20:48.541Z,44.09
2022-11-21T12:21:48.528Z,43.22
2022-11-21T12:22:57.799Z,42.4
2022-11-21T12:23:48.541Z,41.7
2022-11-21T12:24:48.543Z,41.94
2022-11-21T12:25:48.529Z,42.39
2022-11-21T12:26:48.543Z,43.09
2022-11-21T12:27:48.543Z,43.52
2022-11-21T12:28:48.543Z,43.68
2022-11-21T12:29:48.530Z,43.92
2022-11-21T12:30:48.544Z,44.09
2022-11-21T12:31:48.545Z,44.24
2022-11-21T12:33:48.533Z,44.62
2022-11-21T12:34:48.546Z,44.78
2022-11-21T12:35:48.546Z,44.97
2022-11-21T12:36:48.532Z,45.21
2022-11-21T12:37:48.533Z,45.43
2022-11-21T12:38:48.546Z,45.48
2022-11-21T12:39:48.547Z,45.96
2022-11-21T12:40:48.534Z,45.9
2022-11-21T12:41:48.548Z,45.12
2022-11-21T12:42:48.548Z,44.02
2022-11-21T12:43:48.547Z,42.69
2022-11-21T12:44:48.535Z,42.28
2022-11-21T12:45:48.549Z,42.71
2022-11-21T12:46:48.549Z,43.57
2022-11-21T12:47:48.548Z,44.04
2022-11-21T12:48:48.536Z,44.66
2022-11-21T12:49:48.550Z,45.21
2022-11-21T12:50:48.550Z,45.78
2022-11-21T12:51:48.537Z,45.96
2022-11-21T12:52:48.538Z,46.11
2022-11-21T12:53:48.551Z,46.21
2022-11-21T12:54:48.550Z,46.34
2022-11-21T12:55:48.538Z,45.96
2022-11-21T12:56:48.600Z,45.15
2022-11-21T12:57:48.551Z,44.56
2022-11-21T12:58:48.553Z,44.68
2022-11-21T12:59:48.539Z,44.68
2022-11-21T13:00:48.553Z,44.95